Terminal Aerodrome Forecast
Issued by NWS

Home | Current Version | Previous Version | Text Only | Print | Product List | Glossary On
Versions: 1 2 3 4 5 6 7 8 9 10 11 12 13 14 15 16 17 18 19 20 21 22 23 24 25 26 27 28 29
000
FTUS43 KDLH 281603 AAD
TAFBRD
TAF AMD
KBRD 281603Z 2816/2912 13006KT 6SM -RA BR OVC006
      TEMPO 2816/2817 4SM -SHRA OVC010
     FM282000 23014KT P6SM VCTS BKN015 OVC025CB
     FM290000 29009KT P6SM BKN025
     FM290300 29006KT P6SM SCT035 BKN070=

USA.gov is the U.S. government's official web portal to all federal, state and local government web resources and services.